Plean, United Kingdom
Current Conditions -  °F | °C
As of 3:20 PM on Friday 19 Dec 2014 (Local Time) from EGPH Reporting Station
Rain Showers Rain Showers  
Wind Chill: 31°   Ceiling: 3200
Heat Index: 39°   Visibility: 6mi
Dew Point: 36°   Wind: 14mph
Humidity: 87%   Direction: 250°WSW
Pressure: 29.68"   Gusts: NA
Location:  56.07°N, 3.88°W
Report Text: EGPH 191520Z 25012KT 9999 9000W -SHRA FEW013 SCT022CB BKN032 04/02 Q1005
Loading
Personal Weather Stations






























Interactive Weather Map New forecast layout! Learn more

10-Day Weather Forecast

Advertisements
Track Severe Weather on mobile